KDEH/DEH METAR and TAF weather

Enter ICAO airport designator
Station Type Date Time Source
KDEH METAR 2019/04/24 21:55 UTC NOAA

KDEH 242155Z AUTO 20011KT 10SM SCT031 16/08 A2982 RMK AO2


Station Type Date Time Source
KDEH Decoded METAR 2019/04/24 21:55 UTC NOAA

Decorah, IA, United States (KDEH) 43-17N 091-44W
Apr 24, 2019 - 05:55 PM EDT / 2019.04.24 2155 UTC
Wind: from the SSW (200 degrees) at 13 MPH (11 KT):0
Visibility: 10 mile(s):0
Sky conditions: partly cloudy
Temperature: 60 F (16 C)
Dew Point: 46 F (8 C)
Relative Humidity: 58%
Pressure (altimeter): 29.82 in. Hg (1009 hPa)
ob: KDEH 242155Z AUTO 20011KT 10SM SCT031 16/08 A2982 RMK AO2
cycle: 22

Station Type Date Time Source
KDEH TAF UTC NOAA

Error!

Example: see airport list